Time;durP1;ratioP1;P1;durP2;ratioP2;P2;SDS_P1;SDS_P2;PMS_P1;PMS_P2;Temp;Humidity;BMP_temperature;BMP_pressure;BME280_temperature;BME280_humidity;BME280_pressure;Samples;Min_cycle;Max_cycle;Signal;HPM_P1;HPM_P2
2022/05/18 00:01:41;;;;;;;13.10;8.70;;;15.30;99.90;;;;;;4113361;28;20208;-77
2022/05/18 00:03:45;;;;;;;10.13;8.53;;;15.30;99.90;;;;;;4121663;28;20266;-77
2022/05/18 00:05:47;;;;;;;14.70;9.70;;;15.20;99.90;;;;;;4126062;28;20219;-77
2022/05/18 00:07:49;;;;;;;12.70;9.10;;;15.20;99.90;;;;;;4164201;28;20267;-77
2022/05/18 00:09:53;;;;;;;17.37;9.90;;;15.20;99.90;;;;;;4131090;28;20228;-77
2022/05/18 00:11:55;;;;;;;12.83;9.23;;;15.20;99.90;;;;;;4123286;28;20216;-77
2022/05/18 00:13:59;;;;;;;12.10;9.17;;;15.20;99.90;;;;;;4171120;28;20240;-77
2022/05/18 00:16:01;;;;;;;11.83;8.63;;;15.20;99.90;;;;;;4195985;28;20241;-77
2022/05/18 00:18:03;;;;;;;14.60;9.70;;;15.20;99.90;;;;;;4150422;28;20631;-77
2022/05/18 00:20:06;;;;;;;12.67;9.03;;;15.20;99.90;;;;;;4112477;28;20264;-76
2022/05/18 00:22:08;;;;;;;17.30;9.93;;;15.20;99.90;;;;;;4191513;28;20210;-77
2022/05/18 00:24:10;;;;;;;15.57;10.10;;;15.10;99.90;;;;;;4179327;28;20218;-77
2022/05/18 00:26:13;;;;;;;12.97;9.13;;;15.00;99.90;;;;;;4160618;28;20296;-77
2022/05/18 00:28:15;;;;;;;14.53;10.10;;;15.10;99.90;;;;;;4125846;28;20253;-77
2022/05/18 00:30:18;;;;;;;13.03;9.53;;;15.10;99.90;;;;;;4145664;28;20214;-77
2022/05/18 00:32:20;;;;;;;12.57;9.43;;;15.10;99.90;;;;;;4139344;28;20298;-77
2022/05/18 00:34:22;;;;;;;14.63;9.40;;;15.10;99.90;;;;;;4131523;28;20218;-77
2022/05/18 00:36:23;;;;;;;14.67;9.73;;;15.20;99.90;;;;;;4111576;28;20207;-77
2022/05/18 00:38:26;;;;;;;12.20;9.87;;;15.10;99.90;;;;;;4112361;28;20236;-76
2022/05/18 00:40:29;;;;;;;14.80;9.87;;;15.00;99.90;;;;;;4112785;28;20215;-77
2022/05/18 00:42:32;;;;;;;13.93;9.80;;;15.00;99.90;;;;;;4177237;28;20219;-77
2022/05/18 00:44:34;;;;;;;12.33;9.50;;;15.00;99.90;;;;;;4112874;28;20215;-77
2022/05/18 00:46:36;;;;;;;14.40;10.27;;;15.00;99.90;;;;;;4112564;28;20211;-77
2022/05/18 00:48:38;;;;;;;13.57;9.70;;;15.00;99.90;;;;;;4137554;28;20286;-76
2022/05/18 00:50:42;;;;;;;16.90;10.43;;;15.00;99.90;;;;;;4131854;28;20256;-77
2022/05/18 00:52:50;;;;;;;14.57;10.37;;;15.00;99.90;;;;;;4121537;28;20212;-76
2022/05/18 00:54:54;;;;;;;12.90;10.63;;;15.00;99.90;;;;;;4112046;28;20219;-77
2022/05/18 00:57:01;;;;;;;15.87;10.90;;;15.00;99.90;;;;;;4173879;28;20213;-77
2022/05/18 00:59:12;;;;;;;16.50;10.23;;;15.00;99.90;;;;;;4136232;28;20226;-76
2022/05/18 01:01:15;;;;;;;15.77;10.93;;;15.00;99.90;;;;;;4131373;28;20210;-78
2022/05/18 01:03:21;;;;;;;14.50;11.27;;;15.00;99.90;;;;;;4134736;28;20676;-77
2022/05/18 01:05:28;;;;;;;16.70;11.03;;;15.00;99.90;;;;;;4106079;28;20269;-76
2022/05/18 01:07:38;;;;;;;15.47;10.93;;;14.90;99.90;;;;;;4139197;28;20272;-78
2022/05/18 01:09:41;;;;;;;13.77;11.23;;;14.90;99.90;;;;;;4130965;28;20229;-77
2022/05/18 01:11:43;;;;;;;17.20;11.00;;;14.90;99.90;;;;;;4152208;28;20246;-77
2022/05/18 01:13:45;;;;;;;15.47;10.87;;;14.90;99.90;;;;;;4136896;28;20266;-76
2022/05/18 01:15:49;;;;;;;16.33;10.70;;;14.80;99.90;;;;;;4145386;28;20211;-76
2022/05/18 01:17:56;;;;;;;14.23;11.17;;;14.80;99.90;;;;;;4110954;28;20214;-77
2022/05/18 01:20:00;;;;;;;12.83;9.90;;;14.80;99.90;;;;;;4111951;28;20302;-76
2022/05/18 01:22:11;;;;;;;14.70;10.73;;;14.80;99.90;;;;;;4111209;28;20794;-77
2022/05/18 01:24:22;;;;;;;14.93;11.10;;;14.80;99.90;;;;;;4150551;28;20640;-76
2022/05/18 01:26:39;;;;;;;15.43;11.40;;;14.80;99.90;;;;;;4166324;28;20302;-76
2022/05/18 01:28:45;;;;;;;14.60;11.17;;;14.80;99.90;;;;;;4144566;28;20227;-79
2022/05/18 01:30:50;;;;;;;16.87;11.87;;;14.80;99.90;;;;;;4111497;28;20207;-77
2022/05/18 01:32:54;;;;;;;17.70;11.97;;;14.70;99.90;;;;;;4149018;28;20221;-77
2022/05/18 01:34:56;;;;;;;13.90;11.07;;;14.70;99.90;;;;;;4110599;28;20296;-77
2022/05/18 01:36:58;;;;;;;16.63;11.67;;;14.70;99.90;;;;;;4147513;28;20210;-76
2022/05/18 01:39:01;;;;;;;17.40;11.77;;;14.70;99.90;;;;;;4115260;28;20238;-76
2022/05/18 02:13:10;;;;;;;13.70;11.10;;;14.40;99.90;;;;;;4117356;28;20212;-75
2022/05/18 02:15:12;;;;;;;14.77;11.40;;;14.40;99.90;;;;;;4115660;28;20205;-76
2022/05/18 02:17:15;;;;;;;16.10;11.80;;;14.40;99.90;;;;;;4141081;28;20249;-76
2022/05/18 02:19:17;;;;;;;17.37;12.20;;;14.40;99.90;;;;;;4111884;28;20321;-76
2022/05/18 02:21:18;;;;;;;16.27;12.50;;;14.40;99.90;;;;;;4112066;28;20697;-77
2022/05/18 02:23:21;;;;;;;18.13;13.07;;;14.40;99.90;;;;;;4112075;28;20209;-76
2022/05/18 02:25:23;;;;;;;16.73;12.53;;;14.40;99.90;;;;;;4131572;28;20292;-76
2022/05/18 02:27:25;;;;;;;17.10;12.40;;;14.40;99.90;;;;;;4113449;28;20213;-76
2022/05/18 02:29:27;;;;;;;18.63;12.93;;;14.40;99.90;;;;;;4168776;28;20244;-76
2022/05/18 02:31:28;;;;;;;20.43;13.60;;;14.40;99.90;;;;;;4096706;28;20211;-77
2022/05/18 02:33:31;;;;;;;16.70;13.10;;;14.40;99.90;;;;;;4180408;28;20211;-76
2022/05/18 02:35:34;;;;;;;18.57;13.57;;;14.30;99.90;;;;;;4116157;28;20201;-78
2022/05/18 02:37:36;;;;;;;17.27;13.57;;;14.40;99.90;;;;;;4119213;28;20271;-76
2022/05/18 02:39:38;;;;;;;18.27;13.20;;;14.30;99.90;;;;;;4168837;28;20719;-77
2022/05/18 02:41:40;;;;;;;19.47;13.63;;;14.30;99.90;;;;;;4130213;28;20677;-76
2022/05/18 02:43:41;;;;;;;16.97;13.30;;;14.40;99.90;;;;;;4107668;28;20218;-76
2022/05/18 02:45:43;;;;;;;18.87;13.40;;;14.40;99.90;;;;;;4113927;28;20229;-76
2022/05/18 02:47:45;;;;;;;18.07;12.83;;;14.40;99.90;;;;;;4179673;28;20206;-76
2022/05/18 02:49:48;;;;;;;19.27;14.43;;;14.40;99.90;;;;;;4196380;28;20272;-76
2022/05/18 02:51:51;;;;;;;21.57;14.17;;;14.40;99.90;;;;;;4110863;28;20736;-76
2022/05/18 02:53:52;;;;;;;21.70;14.47;;;14.40;99.90;;;;;;4113855;28;20211;-76
2022/05/18 02:56:05;;;;;;;19.30;14.57;;;14.40;99.90;;;;;;4114170;28;20209;-75
2022/05/18 02:58:07;;;;;;;19.40;14.13;;;14.40;99.90;;;;;;4114583;28;20570;-76
2022/05/18 03:00:10;;;;;;;17.57;13.40;;;14.40;99.90;;;;;;4113942;28;20208;-76
2022/05/18 03:02:12;;;;;;;18.50;12.73;;;14.40;99.90;;;;;;4113866;28;20298;-76
2022/05/18 03:04:14;;;;;;;20.63;14.50;;;14.30;99.90;;;;;;4179279;28;20247;-77
2022/05/18 03:06:20;;;;;;;21.63;14.73;;;14.30;99.90;;;;;;4114742;28;20213;-76
2022/05/18 03:08:22;;;;;;;19.63;14.87;;;14.30;99.90;;;;;;4112431;28;20232;-76
2022/05/18 03:10:24;;;;;;;18.53;13.90;;;14.30;99.90;;;;;;4113252;28;20244;-76
2022/05/18 03:12:26;;;;;;;23.27;14.70;;;14.30;99.90;;;;;;4112940;28;20271;-76
2022/05/18 03:14:27;;;;;;;21.67;15.37;;;14.30;99.90;;;;;;4150556;28;20208;-76
2022/05/18 03:16:31;;;;;;;19.57;14.10;;;14.30;99.90;;;;;;4117094;28;20276;-76
2022/05/18 03:18:33;;;;;;;19.07;14.47;;;14.30;99.90;;;;;;4129097;28;20320;-75
2022/05/18 03:25:15;;;;;;;21.70;14.63;;;14.30;99.90;;;;;;4112032;28;20209;-76
2022/05/18 03:27:17;;;;;;;20.97;15.53;;;14.30;99.90;;;;;;4113594;28;20215;-76
2022/05/18 03:29:18;;;;;;;19.00;14.23;;;14.30;99.90;;;;;;4113824;28;20311;-76
2022/05/18 03:31:23;;;;;;;20.97;15.07;;;14.30;99.90;;;;;;4113012;28;20205;-76
2022/05/18 03:33:25;;;;;;;21.30;15.33;;;14.30;99.90;;;;;;4166553;28;20215;-76
2022/05/18 03:35:27;;;;;;;21.23;16.03;;;14.30;99.90;;;;;;4138892;28;20215;-75
2022/05/18 03:37:29;;;;;;;20.87;14.90;;;14.30;99.90;;;;;;4113609;28;20209;-76
2022/05/18 03:39:32;;;;;;;21.30;15.23;;;14.30;99.90;;;;;;4185379;22;20237;-83
2022/05/18 03:41:35;;;;;;;18.67;14.33;;;14.30;99.90;;;;;;4201841;28;20206;-81
2022/05/18 03:43:38;;;;;;;22.57;15.10;;;14.30;99.90;;;;;;4202824;28;20206;-83
2022/05/18 03:45:40;;;;;;;22.43;14.73;;;14.20;99.90;;;;;;4183290;28;20217;-83
2022/05/18 03:47:42;;;;;;;22.10;14.40;;;14.30;99.90;;;;;;4198997;28;20285;-83
2022/05/18 03:49:44;;;;;;;19.97;13.93;;;14.30;99.90;;;;;;4198135;28;20223;-82
2022/05/18 03:51:47;;;;;;;19.07;14.80;;;14.30;99.90;;;;;;4199452;28;20691;-82
2022/05/18 03:53:49;;;;;;;20.90;14.63;;;14.30;99.90;;;;;;4199293;28;20292;-83
2022/05/18 03:55:52;;;;;;;18.67;14.30;;;14.30;99.90;;;;;;4176479;28;20218;-83
2022/05/18 03:57:54;;;;;;;20.40;14.17;;;14.30;99.90;;;;;;4196433;28;20236;-83
2022/05/18 03:59:56;;;;;;;19.63;13.97;;;14.30;99.90;;;;;;4179654;28;20242;-83
2022/05/18 04:01:57;;;;;;;17.97;12.93;;;14.40;99.90;;;;;;4196244;28;20208;-83
2022/05/18 04:03:59;;;;;;;20.70;14.60;;;14.30;99.90;;;;;;4197265;28;20205;-83
2022/05/18 04:06:01;;;;;;;20.77;14.37;;;14.40;99.90;;;;;;4181406;28;20217;-82
2022/05/18 04:08:03;;;;;;;21.00;14.20;;;14.40;99.90;;;;;;4199283;28;20737;-83
2022/05/18 04:10:06;;;;;;;22.23;14.13;;;14.40;99.90;;;;;;4198454;28;20412;-83
2022/05/18 04:12:10;;;;;;;20.90;14.73;;;14.40;99.90;;;;;;4180922;28;20232;-83
2022/05/18 04:14:12;;;;;;;17.20;13.27;;;14.40;99.90;;;;;;4198809;28;20203;-83
2022/05/18 04:16:13;;;;;;;19.93;13.73;;;14.50;99.90;;;;;;4199499;28;20206;-83
2022/05/18 04:18:15;;;;;;;20.37;14.20;;;14.50;99.90;;;;;;4196637;28;20203;-82
2022/05/18 04:20:20;;;;;;;20.50;13.67;;;14.50;99.90;;;;;;4180699;28;20457;-83
2022/05/18 04:22:23;;;;;;;18.00;13.37;;;14.50;99.90;;;;;;4199551;28;20296;-82
2022/05/18 04:24:25;;;;;;;17.40;13.97;;;14.50;99.90;;;;;;4197902;28;20581;-83
2022/05/18 04:26:27;;;;;;;17.40;13.67;;;14.50;99.90;;;;;;4196411;28;20206;-85
2022/05/18 04:28:33;;;;;;;19.70;13.30;;;14.60;99.90;;;;;;4197005;28;20676;-83
2022/05/18 04:30:36;;;;;;;21.37;13.43;;;14.60;99.90;;;;;;4198269;28;20236;-83
2022/05/18 04:32:39;;;;;;;18.90;13.60;;;14.60;99.90;;;;;;4206610;28;20214;-83
2022/05/18 04:34:42;;;;;;;18.67;13.27;;;14.70;99.90;;;;;;4188682;28;20324;-83
2022/05/18 04:36:44;;;;;;;17.03;13.10;;;14.70;99.90;;;;;;4198820;28;20577;-83
2022/05/18 04:38:48;;;;;;;18.20;14.10;;;14.70;99.90;;;;;;4196454;28;20695;-84
2022/05/18 04:40:50;;;;;;;21.03;14.97;;;14.70;99.90;;;;;;4198338;28;20206;-84
2022/05/18 04:42:52;;;;;;;18.87;13.83;;;14.70;99.90;;;;;;4195749;28;20226;-83
2022/05/18 04:44:55;;;;;;;17.97;13.30;;;14.80;99.90;;;;;;4199360;28;20274;-84
2022/05/18 04:46:58;;;;;;;18.60;13.33;;;14.80;99.90;;;;;;4173834;28;20294;-84
2022/05/18 04:49:00;;;;;;;20.13;13.47;;;14.80;99.90;;;;;;4194465;28;20226;-84
2022/05/18 04:51:05;;;;;;;19.40;14.00;;;14.80;99.90;;;;;;4196127;28;20233;-83
2022/05/18 04:53:07;;;;;;;17.13;13.17;;;14.90;99.90;;;;;;4194920;28;20202;-83
2022/05/18 04:55:10;;;;;;;16.83;13.17;;;14.90;99.90;;;;;;4195881;28;20289;-82
2022/05/18 04:57:12;;;;;;;20.00;13.80;;;15.00;99.90;;;;;;4194909;28;20226;-83
2022/05/18 04:59:14;;;;;;;22.80;12.53;;;15.00;99.90;;;;;;4192728;28;20215;-83
2022/05/18 05:01:17;;;;;;;18.53;12.60;;;15.00;99.90;;;;;;4198268;28;20292;-83
2022/05/18 05:03:19;;;;;;;19.80;13.30;;;15.10;99.90;;;;;;4195754;28;20216;-81
2022/05/18 05:05:21;;;;;;;21.37;14.47;;;15.10;99.90;;;;;;4195909;28;20207;-84
2022/05/18 05:07:23;;;;;;;20.20;13.93;;;15.20;99.90;;;;;;4177265;28;20209;-81
2022/05/18 05:09:27;;;;;;;17.90;13.07;;;15.20;99.90;;;;;;4174151;28;20226;-82
2022/05/18 05:11:29;;;;;;;18.50;13.27;;;15.30;99.90;;;;;;4196207;28;20217;-84
2022/05/18 05:13:31;;;;;;;20.47;12.83;;;15.20;99.90;;;;;;4197407;28;20236;-83
2022/05/18 05:15:34;;;;;;;21.53;13.40;;;15.30;99.90;;;;;;4193448;28;20218;-83
2022/05/18 05:17:37;;;;;;;16.83;12.93;;;15.40;99.90;;;;;;4191076;28;20224;-83
2022/05/18 05:19:39;;;;;;;19.13;12.17;;;15.40;99.90;;;;;;4195542;28;20331;-83
2022/05/18 05:21:45;;;;;;;18.00;12.50;;;15.40;99.90;;;;;;4194465;28;20229;-84
2022/05/18 05:23:47;;;;;;;19.83;12.60;;;15.50;99.90;;;;;;4193660;28;20211;-83
2022/05/18 05:25:49;;;;;;;16.50;12.03;;;15.50;99.90;;;;;;4193637;28;20217;-83
2022/05/18 05:27:51;;;;;;;16.33;12.00;;;15.50;99.90;;;;;;4190183;28;20202;-83
2022/05/18 05:29:53;;;;;;;17.60;12.53;;;15.50;99.90;;;;;;4200323;28;20309;-85
2022/05/18 05:31:55;;;;;;;16.73;12.23;;;15.60;99.90;;;;;;4197741;28;20204;-84
2022/05/18 05:33:58;;;;;;;22.90;12.70;;;15.60;99.90;;;;;;4195156;28;20207;-84
2022/05/18 05:36:01;;;;;;;16.53;11.90;;;15.60;99.90;;;;;;4196871;28;20206;-83
2022/05/18 05:38:03;;;;;;;18.93;12.47;;;15.60;99.90;;;;;;4197402;28;20291;-84
2022/05/18 05:40:06;;;;;;;18.53;12.43;;;15.70;99.90;;;;;;4178996;28;20401;-81
2022/05/18 05:42:09;;;;;;;17.87;11.93;;;15.70;99.90;;;;;;4196349;28;20211;-82
2022/05/18 05:44:17;;;;;;;17.43;12.17;;;15.70;99.90;;;;;;4198201;28;20200;-83
2022/05/18 05:46:18;;;;;;;17.50;12.33;;;15.70;99.90;;;;;;4179677;28;20268;-83
2022/05/18 05:48:20;;;;;;;22.50;13.30;;;15.70;99.90;;;;;;4197627;28;20208;-83
2022/05/18 05:50:24;;;;;;;16.80;13.37;;;15.70;99.90;;;;;;4175580;28;20218;-83
2022/05/18 05:52:26;;;;;;;17.07;12.33;;;15.70;99.90;;;;;;4178646;28;20562;-83
2022/05/18 05:54:27;;;;;;;18.13;12.23;;;15.70;99.90;;;;;;4192570;28;20210;-84
2022/05/18 05:56:29;;;;;;;15.27;11.80;;;15.70;99.90;;;;;;4196238;28;20211;-83
2022/05/18 05:58:33;;;;;;;15.37;11.33;;;15.70;99.90;;;;;;4196080;28;20210;-82
2022/05/18 06:00:36;;;;;;;17.67;11.40;;;15.70;99.90;;;;;;4175926;28;20206;-82
2022/05/18 06:02:38;;;;;;;15.53;12.00;;;15.70;99.90;;;;;;4192631;28;20210;-83
2022/05/18 06:04:40;;;;;;;16.50;11.63;;;15.70;99.90;;;;;;4175412;28;20207;-83
2022/05/18 06:06:43;;;;;;;16.17;12.17;;;15.70;99.90;;;;;;4196086;28;20617;-83
2022/05/18 06:08:45;;;;;;;15.10;11.53;;;15.70;99.90;;;;;;4199145;28;20323;-83
2022/05/18 06:10:46;;;;;;;15.07;11.77;;;15.80;99.90;;;;;;4177181;28;20233;-83
2022/05/18 06:12:48;;;;;;;19.83;12.40;;;15.80;99.90;;;;;;4198484;28;20568;-83
2022/05/18 06:14:50;;;;;;;19.27;13.40;;;15.80;99.90;;;;;;4199259;28;20217;-82
2022/05/18 06:16:52;;;;;;;16.47;12.90;;;15.80;99.90;;;;;;4200887;28;20670;-83
2022/05/18 06:18:54;;;;;;;18.53;12.57;;;15.80;99.90;;;;;;4201010;28;20251;-83
2022/05/18 06:20:55;;;;;;;23.00;14.03;;;15.80;99.90;;;;;;4181335;28;20232;-83
2022/05/18 06:23:02;;;;;;;17.63;11.77;;;15.80;99.90;;;;;;4201746;28;20265;-83
2022/05/18 06:25:05;;;;;;;18.07;12.50;;;15.90;99.90;;;;;;4181747;28;20236;-83
2022/05/18 06:27:08;;;;;;;17.33;11.80;;;15.90;99.90;;;;;;4201032;28;20295;-83
2022/05/18 06:29:09;;;;;;;21.50;12.87;;;15.90;99.90;;;;;;4201514;28;20232;-83
2022/05/18 06:31:11;;;;;;;19.87;13.30;;;16.00;99.90;;;;;;4201687;28;20239;-83
2022/05/18 06:33:13;;;;;;;18.07;11.90;;;16.00;99.90;;;;;;4180127;28;20228;-83
2022/05/18 06:35:15;;;;;;;17.77;12.13;;;16.00;99.90;;;;;;4179199;28;20675;-83
2022/05/18 06:37:17;;;;;;;17.33;12.80;;;16.10;99.90;;;;;;4201345;28;20208;-83
2022/05/18 06:39:20;;;;;;;15.50;11.90;;;16.10;99.90;;;;;;4202210;28;20256;-81
2022/05/18 06:41:21;;;;;;;17.23;12.63;;;16.10;99.90;;;;;;4199792;28;20580;-83
2022/05/18 06:43:23;;;;;;;14.83;12.10;;;16.20;99.90;;;;;;4199002;28;20209;-83
2022/05/18 06:45:25;;;;;;;16.57;12.20;;;16.10;99.90;;;;;;4199427;28;20202;-84
2022/05/18 06:47:27;;;;;;;18.17;12.57;;;16.20;99.90;;;;;;4198549;28;20223;-84
2022/05/18 06:49:29;;;;;;;17.47;12.37;;;16.30;99.90;;;;;;4174608;28;20268;-84
2022/05/18 06:51:34;;;;;;;14.90;11.83;;;16.30;99.90;;;;;;4199385;28;20217;-84
2022/05/18 06:53:36;;;;;;;17.30;12.10;;;16.60;99.90;;;;;;4178158;28;20301;-84
2022/05/18 06:55:39;;;;;;;15.63;11.87;;;16.40;99.90;;;;;;4175774;28;20234;-84
2022/05/18 06:57:44;;;;;;;17.27;13.00;;;16.40;99.90;;;;;;4190575;28;20234;-83
2022/05/18 06:59:45;;;;;;;17.93;11.23;;;16.50;99.90;;;;;;4197050;28;20240;-84
2022/05/18 07:01:47;;;;;;;18.20;12.17;;;16.50;99.90;;;;;;4201752;28;20198;-84
2022/05/18 07:03:49;;;;;;;15.97;11.77;;;16.50;99.90;;;;;;4200871;28;20701;-83
2022/05/18 07:05:51;;;;;;;18.83;11.90;;;16.60;99.90;;;;;;4178545;28;20214;-84
2022/05/18 07:07:53;;;;;;;13.43;10.37;;;16.50;99.90;;;;;;4199529;28;20209;-84
2022/05/18 07:09:55;;;;;;;17.33;11.27;;;16.60;99.90;;;;;;4174250;28;20231;-85
2022/05/18 07:11:59;;;;;;;15.60;11.13;;;17.00;99.90;;;;;;4199671;28;20221;-83
2022/05/18 07:14:01;;;;;;;13.87;10.87;;;16.70;99.90;;;;;;4199772;28;20213;-85
2022/05/18 07:16:06;;;;;;;16.50;10.90;;;16.90;99.90;;;;;;4198615;28;20209;-84
2022/05/18 07:18:11;;;;;;;16.60;11.27;;;16.80;99.90;;;;;;4181767;28;20222;-84
2022/05/18 07:20:16;;;;;;;18.70;11.43;;;16.80;99.90;;;;;;4194830;28;20264;-85
2022/05/18 07:22:23;;;;;;;16.07;11.20;;;16.90;99.90;;;;;;4181268;28;20214;-85
2022/05/18 07:24:43;;;;;;;16.73;11.43;;;17.00;99.90;;;;;;4180782;28;20263;-85
2022/05/18 07:26:55;;;;;;;20.67;11.30;;;17.00;99.90;;;;;;4196852;28;20236;-85
2022/05/18 07:29:11;;;;;;;15.93;10.73;;;17.10;99.90;;;;;;4195566;28;20221;-85
2022/05/18 07:31:13;;;;;;;18.93;10.83;;;17.10;99.90;;;;;;4194467;28;20321;-85
2022/05/18 07:33:28;;;;;;;15.47;11.67;;;17.20;99.90;;;;;;4197275;28;20288;-85
2022/05/18 07:35:32;;;;;;;15.90;10.53;;;17.20;99.90;;;;;;4198964;28;20267;-85
2022/05/18 07:37:34;;;;;;;15.53;10.80;;;17.30;99.90;;;;;;4181063;28;20206;-86
2022/05/18 07:39:38;;;;;;;19.23;11.30;;;17.30;99.90;;;;;;4181096;28;20262;-85
2022/05/18 07:41:45;;;;;;;17.27;11.17;;;17.40;99.90;;;;;;4175233;28;20680;-85
2022/05/18 07:43:52;;;;;;;14.80;10.57;;;17.60;99.90;;;;;;4198886;28;20206;-85
2022/05/18 07:45:56;;;;;;;16.90;11.53;;;17.50;99.90;;;;;;4176599;28;20642;-85
2022/05/18 07:47:58;;;;;;;17.53;11.17;;;17.50;99.90;;;;;;4180666;28;20203;-85
2022/05/18 07:50:00;;;;;;;16.67;10.17;;;17.60;99.90;;;;;;4180873;28;20694;-85
2022/05/18 07:52:04;;;;;;;15.47;9.90;;;17.60;99.90;;;;;;4198078;28;20213;-85
2022/05/18 07:54:17;;;;;;;15.07;10.33;;;17.70;99.90;;;;;;4181101;28;20268;-84
2022/05/18 07:56:19;;;;;;;16.90;11.47;;;17.80;99.90;;;;;;4198457;28;20300;-84
2022/05/18 07:58:23;;;;;;;12.83;10.07;;;17.80;99.90;;;;;;4180773;28;20221;-85
2022/05/18 08:00:27;;;;;;;11.83;9.53;;;17.90;99.90;;;;;;4174995;28;20240;-85
2022/05/18 08:02:32;;;;;;;15.27;8.93;;;17.90;99.90;;;;;;4197794;28;20612;-85
2022/05/18 08:04:35;;;;;;;14.77;9.33;;;18.00;99.90;;;;;;4198738;28;20199;-84
2022/05/18 08:06:38;;;;;;;12.17;9.23;;;18.00;99.90;;;;;;4197290;28;20284;-84
2022/05/18 08:08:40;;;;;;;15.00;9.33;;;18.10;99.90;;;;;;4195855;28;20265;-84
2022/05/18 08:15:23;;;;;;;14.17;9.43;;;18.30;99.90;;;;;;4198289;28;20207;-84
2022/05/18 08:17:27;;;;;;;10.73;8.63;;;18.30;99.90;;;;;;4196596;28;20510;-84
2022/05/18 08:19:30;;;;;;;12.47;9.80;;;18.40;99.90;;;;;;4180106;28;20794;-84
2022/05/18 08:21:37;;;;;;;13.20;9.23;;;18.40;99.90;;;;;;4198797;28;20209;-84
2022/05/18 08:23:39;;;;;;;15.23;9.63;;;18.50;99.90;;;;;;4176813;28;20220;-84
2022/05/18 08:25:47;;;;;;;14.60;9.80;;;18.60;99.90;;;;;;4198598;28;20298;-85
2022/05/18 08:27:52;;;;;;;13.53;8.67;;;18.60;99.90;;;;;;4198874;28;20286;-85
2022/05/18 08:30:07;;;;;;;11.03;8.37;;;18.70;99.90;;;;;;4193456;28;20226;-84
2022/05/18 08:32:19;;;;;;;13.90;8.67;;;18.80;99.90;;;;;;4188457;28;20225;-85
2022/05/18 08:34:52;;;;;;;12.90;8.80;;;18.80;99.90;;;;;;4208058;28;20224;-85
2022/05/18 08:37:00;;;;;;;11.67;8.07;;;18.90;99.90;;;;;;4202205;28;20206;-84
2022/05/18 08:39:15;;;;;;;14.73;9.30;;;19.00;99.90;;;;;;4176079;28;20237;-85
2022/05/18 08:41:21;;;;;;;10.17;7.77;;;19.00;99.90;;;;;;4192642;28;20213;-85
2022/05/18 08:43:34;;;;;;;10.13;6.90;;;19.10;99.90;;;;;;4179911;28;20224;-85
2022/05/18 08:45:55;;;;;;;11.03;7.17;;;19.10;99.90;;;;;;4196660;28;20269;-84
2022/05/18 08:48:24;;;;;;;8.70;6.70;;;19.20;99.90;;;;;;4194929;28;20226;-85
2022/05/18 08:50:33;;;;;;;10.43;6.73;;;19.30;99.90;;;;;;4197800;28;20228;-85
2022/05/18 08:53:11;;;;;;;12.00;6.30;;;19.30;99.90;;;;;;4198762;28;20205;-85
2022/05/18 08:55:53;;;;;;;8.63;6.20;;;19.40;99.90;;;;;;4200502;28;20227;-85
2022/05/18 08:58:03;;;;;;;7.53;5.57;;;19.50;99.90;;;;;;4198587;28;20204;-85
2022/05/18 09:00:22;;;;;;;9.03;5.97;;;19.60;99.90;;;;;;4186355;28;20233;-85
2022/05/18 09:02:40;;;;;;;6.40;5.60;;;19.60;99.90;;;;;;4201006;28;20232;-85
2022/05/18 09:04:53;;;;;;;7.03;5.33;;;19.70;99.90;;;;;;4182763;28;20225;-85
2022/05/18 09:07:11;;;;;;;7.47;5.03;;;19.90;99.90;;;;;;4209965;28;20216;-85
2022/05/18 09:11:44;;;;;;;7.70;5.57;;;19.90;99.90;;;;;;4203028;28;20252;-85
2022/05/18 09:13:59;;;;;;;8.60;5.23;;;20.00;99.90;;;;;;4202597;28;20216;-85
2022/05/18 09:16:15;;;;;;;9.60;6.07;;;20.10;99.90;;;;;;4183452;28;20264;-85
2022/05/18 09:18:50;;;;;;;11.90;5.40;;;20.20;99.90;;;;;;4182459;28;20266;-85
2022/05/18 09:21:19;;;;;;;11.13;6.50;;;20.10;99.90;;;;;;4199188;28;20285;-85
2022/05/18 09:24:10;;;;;;;8.13;5.17;;;20.30;99.90;;;;;;4199414;28;20216;-85
2022/05/18 09:26:54;;;;;;;8.50;5.70;;;20.30;99.90;;;;;;4198837;28;20632;-84
2022/05/18 09:29:25;;;;;;;9.33;5.00;;;20.40;99.90;;;;;;4177918;28;20623;-85
2022/05/18 09:32:01;;;;;;;7.00;5.00;;;20.50;99.90;;;;;;4185917;28;20224;-85
2022/05/18 09:34:36;;;;;;;7.33;4.90;;;20.60;99.90;;;;;;4201523;28;20232;-84
2022/05/18 09:37:14;;;;;;;7.87;5.23;;;20.70;99.90;;;;;;4179433;28;20205;-85
2022/05/18 09:39:22;;;;;;;8.67;4.73;;;20.80;99.90;;;;;;4216824;22;21433;-77
2022/05/18 09:41:29;;;;;;;6.50;5.10;;;20.90;99.90;;;;;;4194172;28;20202;-77
2022/05/18 09:43:41;;;;;;;6.40;5.03;;;21.00;99.90;;;;;;4185897;28;20220;-78
2022/05/18 09:45:47;;;;;;;8.03;4.80;;;21.00;99.90;;;;;;4192260;28;20648;-78
2022/05/18 09:47:52;;;;;;;9.03;4.70;;;21.10;99.90;;;;;;4195588;28;20209;-77
2022/05/18 09:49:56;;;;;;;7.23;4.37;;;21.10;99.90;;;;;;4204089;28;20723;-77
2022/05/18 09:52:01;;;;;;;5.53;4.27;;;21.20;99.90;;;;;;4212211;28;20217;-77
2022/05/18 09:54:04;;;;;;;8.60;4.87;;;21.30;99.90;;;;;;4212387;28;20196;-78
2022/05/18 09:56:12;;;;;;;7.90;4.80;;;21.40;99.90;;;;;;4212081;28;20284;-79
2022/05/18 09:58:17;;;;;;;8.97;5.07;;;21.50;99.90;;;;;;4212644;28;20201;-79
2022/05/18 10:00:22;;;;;;;6.83;4.47;;;21.60;99.90;;;;;;4215436;28;20274;-79
2022/05/18 10:07:30;;;;;;;8.23;4.93;;;21.80;97.10;;;;;;4207898;28;20197;-80
2022/05/18 10:09:41;;;;;;;6.97;4.30;;;21.90;99.30;;;;;;4211277;28;20274;-79
2022/05/18 10:11:44;;;;;;;6.33;4.47;;;21.90;99.50;;;;;;4197608;28;20287;-79
2022/05/18 10:13:56;;;;;;;6.13;3.93;;;22.10;99.50;;;;;;4215077;28;20250;-79
2022/05/18 10:16:04;;;;;;;7.47;4.13;;;22.10;98.40;;;;;;4215182;28;20214;-79
2022/05/18 10:18:31;;;;;;;6.40;4.20;;;22.30;97.10;;;;;;4214620;28;20251;-77
2022/05/18 10:20:35;;;;;;;7.77;4.20;;;22.40;94.80;;;;;;4190849;28;20242;-77
2022/05/18 10:22:42;;;;;;;4.73;3.17;;;22.50;94.30;;;;;;4192513;28;20207;-77
2022/05/18 10:24:51;;;;;;;5.37;2.90;;;22.70;85.20;;;;;;4208209;28;20213;-76
2022/05/18 10:27:20;;;;;;;5.17;2.80;;;22.80;83.00;;;;;;4188683;28;20361;-77
2022/05/18 10:29:24;;;;;;;5.80;3.27;;;23.00;85.80;;;;;;4191371;28;20292;-77
2022/05/18 10:31:32;;;;;;;4.73;3.20;;;23.10;82.20;;;;;;4178476;28;20221;-77
2022/05/18 10:33:36;;;;;;;5.57;3.00;;;23.30;76.30;;;;;;4206321;28;20207;-77
2022/05/18 10:35:49;;;;;;;4.37;3.27;;;23.40;76.00;;;;;;4212131;28;20215;-77
2022/05/18 10:37:51;;;;;;;6.73;3.13;;;23.50;72.70;;;;;;4211441;28;20211;-80
2022/05/18 10:39:58;;;;;;;5.40;2.83;;;23.70;70.60;;;;;;4213625;28;20232;-79
2022/05/18 10:42:02;;;;;;;7.47;3.20;;;23.70;69.40;;;;;;4209474;28;20208;-80
2022/05/18 10:44:12;;;;;;;5.93;3.70;;;23.80;71.80;;;;;;4212963;28;20213;-80
2022/05/18 10:46:18;;;;;;;3.90;3.20;;;23.90;69.20;;;;;;4191348;28;20215;-80
2022/05/18 10:48:23;;;;;;;5.37;3.20;;;24.00;68.90;;;;;;4203747;28;20292;-80
2022/05/18 10:50:29;;;;;;;5.03;3.10;;;24.10;69.30;;;;;;4212547;28;20221;-80
2022/05/18 10:52:33;;;;;;;5.87;3.33;;;24.20;69.20;;;;;;4215361;28;20792;-79
2022/05/18 10:54:34;;;;;;;7.30;3.50;;;24.30;69.50;;;;;;4196569;28;20657;-77
2022/05/18 10:56:37;;;;;;;5.60;2.93;;;24.50;70.70;;;;;;4196958;28;20670;-78
2022/05/18 10:58:43;;;;;;;5.00;2.90;;;24.60;66.00;;;;;;4216400;28;20213;-80
2022/05/18 11:00:51;;;;;;;7.17;3.27;;;24.70;63.60;;;;;;4217492;28;20228;-80
2022/05/18 11:02:58;;;;;;;4.70;2.97;;;24.80;67.10;;;;;;4214114;28;20688;-77
2022/05/18 11:05:05;;;;;;;6.53;3.30;;;25.00;64.10;;;;;;4195241;28;20228;-78
2022/05/18 11:07:08;;;;;;;4.50;2.80;;;25.20;63.60;;;;;;4214893;28;20212;-79
2022/05/18 11:09:18;;;;;;;6.10;2.60;;;25.40;61.30;;;;;;4196376;28;20316;-79
2022/05/18 11:11:28;;;;;;;3.63;2.30;;;25.50;58.60;;;;;;4213223;28;20211;-79
2022/05/18 11:13:37;;;;;;;3.07;2.60;;;25.70;55.40;;;;;;4214699;28;20251;-78
2022/05/18 11:15:50;;;;;;;7.83;2.70;;;25.90;56.60;;;;;;4213508;28;20666;-78
2022/05/18 11:18:04;;;;;;;5.07;2.70;;;26.00;51.80;;;;;;4193020;28;20206;-79
2022/05/18 11:20:19;;;;;;;4.50;2.70;;;26.20;49.90;;;;;;4214778;28;20229;-79
2022/05/18 11:22:31;;;;;;;5.30;2.57;;;26.40;50.60;;;;;;4188572;28;20202;-79
2022/05/18 11:24:41;;;;;;;7.13;2.50;;;26.50;50.30;;;;;;4213951;28;20204;-79
2022/05/18 11:26:52;;;;;;;8.50;2.60;;;26.70;49.30;;;;;;4213880;28;20213;-79
2022/05/18 11:29:01;;;;;;;5.53;2.70;;;26.90;47.50;;;;;;4213500;28;20657;-79
2022/05/18 11:31:22;;;;;;;4.00;2.20;;;27.10;47.20;;;;;;4214365;28;20675;-79
2022/05/18 11:33:34;;;;;;;3.77;2.33;;;27.40;45.80;;;;;;4213638;28;20216;-79